createdAt,value
2018-12-01T00:00:36.375Z,19.82
2018-12-01T00:03:07.599Z,19.81
2018-12-01T00:05:35.815Z,19.83
2018-12-01T00:08:04.027Z,19.81
2018-12-01T00:10:32.239Z,19.80
2018-12-01T00:13:00.463Z,19.80
2018-12-01T00:15:29.312Z,19.80
2018-12-01T00:17:57.608Z,19.80
2018-12-01T00:20:26.578Z,19.81
2018-12-01T00:22:54.835Z,19.81
2018-12-01T00:25:23.839Z,19.80
2018-12-01T00:27:53.343Z,19.80
2018-12-01T00:30:23.872Z,19.81
2018-12-01T00:32:52.155Z,19.82
2018-12-01T00:35:20.739Z,19.83
2018-12-01T00:37:50.484Z,19.83
2018-12-01T00:40:21.548Z,19.84
2018-12-01T00:42:50.669Z,19.84
2018-12-01T00:45:19.771Z,19.83
2018-12-01T00:47:48.590Z,19.84
2018-12-01T00:50:20.453Z,19.84
2018-12-01T00:52:49.434Z,19.83
2018-12-01T00:55:18.051Z,19.84
2018-12-01T00:57:46.267Z,19.84
2018-12-01T01:00:21.900Z,19.83
2018-12-01T01:02:54.742Z,19.84
2018-12-01T01:05:26.302Z,19.85
2018-12-01T01:07:55.268Z,19.84
2018-12-01T01:10:24.128Z,19.83
2018-12-01T01:12:52.421Z,19.84
2018-12-01T01:15:20.616Z,19.82
2018-12-01T01:17:48.840Z,19.82
2018-12-01T01:20:17.703Z,19.83
2018-12-01T01:22:46.190Z,19.84
2018-12-01T01:25:14.800Z,19.84
2018-12-01T01:27:43.029Z,19.84
2018-12-01T01:30:17.691Z,19.83
2018-12-01T01:32:45.896Z,19.83
2018-12-01T01:35:14.293Z,19.84
2018-12-01T01:37:43.404Z,19.78
2018-12-01T01:40:12.996Z,19.82
2018-12-01T01:42:41.594Z,19.85
2018-12-01T01:45:16.356Z,19.84
2018-12-01T01:47:44.591Z,19.85
2018-12-01T01:50:21.955Z,19.86
2018-12-01T01:52:50.216Z,19.83
2018-12-01T01:55:18.733Z,19.84
2018-12-01T01:57:46.960Z,19.84
2018-12-01T02:00:19.087Z,19.84
2018-12-01T02:02:47.999Z,19.84
2018-12-01T02:05:16.792Z,19.84
2018-12-01T02:07:47.536Z,19.84
2018-12-01T02:10:16.181Z,19.84
2018-12-01T02:12:44.392Z,19.56
2018-12-01T02:15:12.855Z,19.83
2018-12-01T02:17:41.408Z,19.82
2018-12-01T02:20:10.369Z,19.79
2018-12-01T02:22:39.008Z,19.78
2018-12-01T02:25:07.820Z,19.79
2018-12-01T02:27:36.017Z,19.81
2018-12-01T02:30:04.485Z,19.81
2018-12-01T02:32:33.158Z,19.82
2018-12-01T02:35:01.448Z,19.82
2018-12-01T02:37:29.672Z,19.76
2018-12-01T02:39:57.887Z,19.79
2018-12-01T02:42:26.548Z,19.81
2018-12-01T02:45:12.899Z,19.83
2018-12-01T02:47:41.109Z,19.82
2018-12-01T02:50:16.896Z,19.82
2018-12-01T02:52:45.110Z,19.83
2018-12-01T02:55:13.318Z,19.82
2018-12-01T02:57:41.614Z,19.82
2018-12-01T03:00:10.746Z,19.82
2018-12-01T03:02:39.015Z,19.81
2018-12-01T03:05:11.316Z,19.81
2018-12-01T03:07:41.422Z,19.82
2018-12-01T03:10:09.708Z,19.80
2018-12-01T03:12:37.999Z,19.81
2018-12-01T03:15:07.317Z,19.79
2018-12-01T03:17:35.518Z,19.80
2018-12-01T03:20:03.771Z,19.80
2018-12-01T03:22:31.972Z,19.80
2018-12-01T03:25:00.330Z,19.79
2018-12-01T03:27:38.143Z,19.79
2018-12-01T03:30:10.224Z,19.78
2018-12-01T03:32:38.511Z,19.79
2018-12-01T03:35:17.310Z,19.81
2018-12-01T03:37:47.376Z,19.80
2018-12-01T03:40:15.846Z,19.81
2018-12-01T03:42:44.086Z,19.80
2018-12-01T03:45:19.247Z,19.80
2018-12-01T03:47:47.802Z,19.81
2018-12-01T03:50:25.760Z,19.81
2018-12-01T03:52:54.741Z,19.80
2018-12-01T03:55:30.043Z,19.79
2018-12-01T03:57:58.451Z,19.81
2018-12-01T04:00:32.348Z,19.80
2018-12-01T04:03:00.928Z,19.82
2018-12-01T04:05:29.257Z,19.81
2018-12-01T04:07:57.574Z,19.83
2018-12-01T04:10:25.854Z,19.82
2018-12-01T04:12:54.991Z,19.83
2018-12-01T04:15:23.253Z,19.83
2018-12-01T04:17:51.921Z,19.83
2018-12-01T04:20:20.667Z,19.82
2018-12-01T04:22:48.875Z,19.81
2018-12-01T04:25:17.067Z,19.80
2018-12-01T04:27:45.715Z,19.80
2018-12-01T04:30:14.574Z,19.79
2018-12-01T04:32:43.098Z,19.77
2018-12-01T04:35:16.255Z,19.77
2018-12-01T04:37:44.739Z,19.75
2018-12-01T04:40:13.043Z,19.75
2018-12-01T04:42:41.298Z,19.74
2018-12-01T04:45:09.515Z,19.76
2018-12-01T04:47:37.892Z,19.71
2018-12-01T04:50:06.788Z,19.78
2018-12-01T04:52:35.015Z,19.79
2018-12-01T04:55:04.840Z,19.82
2018-12-01T04:57:33.016Z,19.82
2018-12-01T05:00:01.515Z,19.84
2018-12-01T05:02:29.706Z,19.82
2018-12-01T05:04:57.924Z,19.81
2018-12-01T05:07:26.136Z,19.83
2018-12-01T05:09:54.599Z,19.83
2018-12-01T05:12:22.815Z,19.84
2018-12-01T05:14:55.681Z,19.84
2018-12-01T05:17:20.179Z,19.83
2018-12-01T05:19:48.433Z,19.84
2018-12-01T05:22:16.642Z,19.82
2018-12-01T05:24:45.935Z,19.82
2018-12-01T05:27:14.211Z,19.82
2018-12-01T05:29:42.433Z,19.81
2018-12-01T05:32:11.296Z,19.80
2018-12-01T05:34:39.515Z,19.80
2018-12-01T05:37:07.738Z,19.78
2018-12-01T05:39:35.942Z,19.79
2018-12-01T05:42:04.598Z,19.79
2018-12-01T05:44:33.231Z,19.77
2018-12-01T05:47:01.534Z,19.73
2018-12-01T05:49:31.472Z,19.77
2018-12-01T05:51:59.041Z,19.75
2018-12-01T05:54:28.509Z,19.75
2018-12-01T05:56:57.012Z,19.73
2018-12-01T05:59:25.618Z,19.74
2018-12-01T06:01:53.821Z,19.72
2018-12-01T06:04:22.360Z,19.73
2018-12-01T06:06:50.566Z,19.76
2018-12-01T06:09:18.778Z,19.79
2018-12-01T06:11:47.720Z,19.80
2018-12-01T06:14:17.432Z,19.78
2018-12-01T06:16:45.900Z,19.76
2018-12-01T06:19:14.159Z,19.79
2018-12-01T06:21:42.355Z,19.81
2018-12-01T06:24:10.571Z,19.82
2018-12-01T06:26:39.071Z,19.82
2018-12-01T06:29:07.453Z,19.83
2018-12-01T06:31:36.575Z,19.83
2018-12-01T06:34:04.876Z,19.83
2018-12-01T06:36:33.404Z,19.81
2018-12-01T06:39:01.911Z,19.84
2018-12-01T06:41:30.448Z,19.74
2018-12-01T06:43:59.006Z,19.75
2018-12-01T06:46:27.660Z,19.66
2018-12-01T06:48:55.877Z,19.64
2018-12-01T06:51:24.460Z,19.48
2018-12-01T06:53:52.803Z,19.41
2018-12-01T06:56:23.812Z,19.18
2018-12-01T06:58:52.123Z,19.06
2018-12-01T07:01:20.849Z,19.05
2018-12-01T07:03:49.203Z,18.99
2018-12-01T07:06:17.492Z,18.88
2018-12-01T07:08:46.060Z,18.83
2018-12-01T07:11:14.339Z,17.72
2018-12-01T07:13:43.127Z,17.74
2018-12-01T07:16:11.991Z,17.88
2018-12-01T07:18:58.359Z,17.99
2018-12-01T07:21:27.062Z,17.79
2018-12-01T07:23:55.268Z,17.19
2018-12-01T07:26:23.483Z,17.36
2018-12-01T07:28:51.727Z,17.24
2018-12-01T07:31:20.201Z,17.23
2018-12-01T07:34:01.856Z,17.06
2018-12-01T07:36:31.293Z,16.99
2018-12-01T07:38:59.591Z,17.31
2018-12-01T07:41:27.792Z,17.06
2018-12-01T07:43:56.332Z,17.01
2018-12-01T07:46:25.052Z,16.84
2018-12-01T07:48:53.239Z,17.10
2018-12-01T07:51:21.711Z,17.24
2018-12-01T07:53:51.105Z,17.00
2018-12-01T07:56:19.752Z,16.92
2018-12-01T07:58:47.963Z,16.67
2018-12-01T08:01:18.709Z,16.74
2018-12-01T08:03:48.980Z,17.72
2018-12-01T08:06:22.755Z,18.20
2018-12-01T08:08:51.139Z,18.39
2018-12-01T08:11:19.380Z,18.47
2018-12-01T08:13:47.687Z,18.53
2018-12-01T08:16:15.957Z,18.57
2018-12-01T08:18:52.962Z,18.64
2018-12-01T08:21:23.418Z,18.74
2018-12-01T08:23:52.676Z,18.85
2018-12-01T08:26:21.197Z,18.96
2018-12-01T08:28:49.408Z,19.04
2018-12-01T08:31:18.027Z,19.12
2018-12-01T08:33:46.591Z,19.18
2018-12-01T08:36:17.840Z,19.24
2018-12-01T08:38:46.056Z,19.27
2018-12-01T08:41:14.275Z,19.32
2018-12-01T08:43:46.172Z,19.38
2018-12-01T08:46:14.839Z,19.35
2018-12-01T08:48:43.428Z,19.40
2018-12-01T08:51:12.300Z,19.42
2018-12-01T08:53:40.511Z,19.45
2018-12-01T08:56:09.067Z,19.47
2018-12-01T08:58:37.289Z,19.49
2018-12-01T09:01:05.799Z,19.47
2018-12-01T09:03:34.014Z,19.49
2018-12-01T09:06:02.628Z,19.50
2018-12-01T09:08:31.144Z,19.49
2018-12-01T09:10:59.357Z,19.48
2018-12-01T09:13:27.590Z,19.49
2018-12-01T09:15:56.100Z,19.52
2018-12-01T09:18:24.357Z,19.54
2018-12-01T09:20:52.967Z,19.54
2018-12-01T09:23:25.951Z,19.55
2018-12-01T09:26:02.339Z,19.54
2018-12-01T09:28:30.621Z,19.53
2018-12-01T09:30:58.823Z,19.53
2018-12-01T09:33:30.193Z,19.53
2018-12-01T09:35:59.388Z,19.51
2018-12-01T09:38:30.110Z,19.52
2018-12-01T09:41:00.377Z,19.53
2018-12-01T09:43:47.362Z,19.52
2018-12-01T09:46:23.929Z,19.51
2018-12-01T09:48:52.777Z,19.51
2018-12-01T09:51:42.337Z,19.50
2018-12-01T09:54:19.736Z,19.49
2018-12-01T09:56:48.004Z,19.51
2018-12-01T09:59:16.277Z,19.53
2018-12-01T10:01:44.490Z,19.51
2018-12-01T10:04:16.522Z,19.57
2018-12-01T10:06:47.244Z,19.59
2018-12-01T10:09:26.095Z,19.61
2018-12-01T10:12:00.727Z,19.66
2018-12-01T10:14:37.283Z,19.66
2018-12-01T10:17:06.648Z,19.68
2018-12-01T10:19:36.018Z,19.74
2018-12-01T10:22:04.377Z,19.73
2018-12-01T10:24:32.661Z,19.78
2018-12-01T10:27:01.901Z,19.77
2018-12-01T10:29:30.455Z,19.74
2018-12-01T10:31:58.730Z,19.72
2018-12-01T10:34:27.561Z,19.73
2018-12-01T10:36:55.808Z,19.72
2018-12-01T10:39:24.337Z,19.74
2018-12-01T10:41:53.142Z,19.72
2018-12-01T10:44:21.409Z,19.79
2018-12-01T10:46:50.251Z,19.84
2018-12-01T10:49:40.687Z,19.80
2018-12-01T10:52:08.899Z,19.76
2018-12-01T10:54:37.179Z,19.76
2018-12-01T10:57:05.408Z,19.71
2018-12-01T10:59:34.081Z,19.67
2018-12-01T11:02:20.102Z,19.70
2018-12-01T11:04:48.543Z,19.70
2018-12-01T11:07:16.779Z,19.69
2018-12-01T11:09:44.979Z,19.71
2018-12-01T11:12:13.213Z,19.66
2018-12-01T11:14:41.771Z,19.66
2018-12-01T11:17:15.787Z,19.65
2018-12-01T11:19:47.162Z,19.64
2018-12-01T11:22:15.508Z,19.64
2018-12-01T11:24:43.783Z,19.63
2018-12-01T11:27:12.103Z,19.63
2018-12-01T11:29:40.404Z,19.62
2018-12-01T11:32:08.603Z,19.62
2018-12-01T11:34:36.836Z,19.61
2018-12-01T11:37:05.127Z,19.63
2018-12-01T11:39:33.719Z,19.62
2018-12-01T11:42:07.238Z,19.61
2018-12-01T11:45:07.105Z,19.62
2018-12-01T11:47:35.591Z,19.63
2018-12-01T11:50:46.778Z,19.63
2018-12-01T11:53:27.648Z,19.65
2018-12-01T11:55:57.442Z,19.64
2018-12-01T12:01:26.117Z,19.65
2018-12-01T12:03:54.584Z,19.64
2018-12-01T12:06:31.246Z,19.63
2018-12-01T12:09:04.478Z,19.64
2018-12-01T12:11:33.320Z,19.62
2018-12-01T12:14:05.399Z,19.64
2018-12-01T12:17:00.334Z,19.65
2018-12-01T12:19:27.499Z,19.74
2018-12-01T12:21:57.436Z,19.69
2018-12-01T12:24:27.544Z,19.66
2018-12-01T12:26:56.445Z,19.66
2018-12-01T12:29:27.647Z,19.66
2018-12-01T12:31:59.588Z,19.66
2018-12-01T12:34:30.698Z,19.67
2018-12-01T12:37:03.466Z,19.68
2018-12-01T12:39:29.446Z,19.68
2018-12-01T12:42:02.159Z,19.65
2018-12-01T12:44:30.387Z,19.63
2018-12-01T12:47:01.224Z,19.61
2018-12-01T12:49:29.483Z,19.61
2018-12-01T12:51:57.785Z,19.62
2018-12-01T12:54:26.266Z,19.63
2018-12-01T12:56:55.649Z,19.59
2018-12-01T12:59:26.482Z,19.62
2018-12-01T13:02:00.760Z,19.61
2018-12-01T13:04:29.109Z,19.66
2018-12-01T13:07:11.036Z,19.71
2018-12-01T13:09:39.332Z,19.71
2018-12-01T13:12:07.565Z,19.70
2018-12-01T13:14:36.851Z,19.73
2018-12-01T13:17:05.361Z,19.70
2018-12-01T13:19:36.240Z,19.72
2018-12-01T13:22:05.539Z,19.68
2018-12-01T13:24:33.746Z,19.71
2018-12-01T13:27:02.122Z,19.71
2018-12-01T13:32:46.893Z,19.75
2018-12-01T13:35:20.059Z,19.77
2018-12-01T13:38:00.996Z,19.74
2018-12-01T13:40:29.653Z,19.78
2018-12-01T13:43:19.930Z,19.78
2018-12-01T13:45:53.892Z,19.79
2018-12-01T13:48:39.456Z,19.77
2018-12-01T13:51:07.955Z,19.78
2018-12-01T13:53:40.235Z,19.78
2018-12-01T13:56:37.939Z,19.78
2018-12-01T13:59:04.646Z,19.76
2018-12-01T14:01:34.821Z,19.72
2018-12-01T14:04:02.724Z,19.71
2018-12-01T14:06:31.153Z,19.71
2018-12-01T14:09:00.799Z,19.71
2018-12-01T14:11:33.144Z,19.71
2018-12-01T14:14:02.056Z,19.71
2018-12-01T14:16:30.335Z,19.71
2018-12-01T14:19:01.601Z,19.72
2018-12-01T14:21:33.197Z,19.71
2018-12-01T14:24:01.702Z,19.68
2018-12-01T14:26:31.200Z,19.68
2018-12-01T14:28:59.702Z,19.71
2018-12-01T14:31:28.084Z,19.72
2018-12-01T14:33:56.473Z,19.68
2018-12-01T14:36:25.280Z,19.69
2018-12-01T14:38:53.772Z,19.68
2018-12-01T14:41:22.103Z,19.66
2018-12-01T14:43:51.496Z,19.69
2018-12-01T14:46:23.768Z,19.66
2018-12-01T14:48:52.334Z,19.71
2018-12-01T14:51:20.663Z,19.70
2018-12-01T14:53:50.308Z,19.70
2018-12-01T14:56:25.442Z,19.71
2018-12-01T14:58:53.971Z,19.71
2018-12-01T15:01:22.669Z,19.72
2018-12-01T15:03:51.637Z,19.71
2018-12-01T15:06:20.234Z,19.67
2018-12-01T15:08:48.575Z,19.68
2018-12-01T15:11:16.771Z,19.69
2018-12-01T15:13:45.072Z,19.72
2018-12-01T15:16:15.472Z,19.71
2018-12-01T15:18:45.531Z,19.74
2018-12-01T15:21:13.812Z,19.72
2018-12-01T15:23:42.467Z,19.73
2018-12-01T15:26:12.844Z,19.73
2018-12-01T15:28:40.853Z,19.72
2018-12-01T15:31:09.560Z,19.73
2018-12-01T15:33:37.904Z,19.71
2018-12-01T15:36:06.355Z,19.71
2018-12-01T15:38:34.592Z,19.69
2018-12-01T15:41:05.795Z,19.69
2018-12-01T15:43:34.893Z,19.67
2018-12-01T15:46:03.199Z,19.66
2018-12-01T15:48:31.537Z,19.67
2018-12-01T15:50:59.951Z,19.65
2018-12-01T15:53:29.092Z,19.65
2018-12-01T15:55:57.656Z,19.65
2018-12-01T15:58:27.585Z,19.63
2018-12-01T16:01:01.735Z,19.64
2018-12-01T16:03:30.250Z,19.65
2018-12-01T16:05:58.642Z,19.66
2018-12-01T16:08:27.455Z,19.70
2018-12-01T16:10:56.064Z,19.74
2018-12-01T16:13:24.885Z,19.65
2018-12-01T16:15:55.396Z,19.60
2018-12-01T16:18:23.938Z,19.63
2018-12-01T16:20:53.716Z,19.64
2018-12-01T16:23:23.071Z,19.66
2018-12-01T16:25:52.889Z,19.65
2018-12-01T16:28:25.721Z,19.66
2018-12-01T16:31:03.371Z,19.67
2018-12-01T16:33:33.004Z,19.66
2018-12-01T16:36:02.359Z,19.66
2018-12-01T16:38:32.277Z,19.65
2018-12-01T16:41:17.498Z,19.66
2018-12-01T16:43:46.081Z,19.66
2018-12-01T16:46:14.424Z,19.67
2018-12-01T16:48:42.979Z,19.67
2018-12-01T16:51:11.933Z,19.70
2018-12-01T16:53:45.726Z,19.69
2018-12-01T16:56:22.134Z,19.68
2018-12-01T16:58:52.017Z,19.69
2018-12-01T17:01:22.148Z,19.67
2018-12-01T17:03:52.984Z,19.67
2018-12-01T17:06:22.824Z,19.68
2018-12-01T17:08:53.895Z,19.66
2018-12-01T17:11:22.619Z,19.64
2018-12-01T17:13:52.049Z,19.64
2018-12-01T17:16:23.260Z,19.63
2018-12-01T17:18:54.916Z,19.64
2018-12-01T17:21:26.143Z,19.64
2018-12-01T17:23:55.771Z,19.65
2018-12-01T17:26:27.491Z,19.66
2018-12-01T17:29:00.867Z,19.66
2018-12-01T17:31:31.857Z,19.65
2018-12-01T17:34:02.580Z,19.66
2018-12-01T17:36:31.287Z,19.65
2018-12-01T17:38:59.624Z,19.63
2018-12-01T17:41:29.313Z,19.67
2018-12-01T17:43:59.309Z,19.69
2018-12-01T17:46:27.900Z,19.68
2018-12-01T17:48:59.349Z,19.69
2018-12-01T17:51:41.834Z,19.68
2018-12-01T17:54:18.496Z,19.68
2018-12-01T17:56:46.844Z,19.67
2018-12-01T17:59:18.692Z,19.67
2018-12-01T18:01:47.728Z,19.67
2018-12-01T18:04:16.000Z,19.67
2018-12-01T18:06:44.363Z,19.67
2018-12-01T18:09:20.664Z,19.68
2018-12-01T18:11:50.130Z,19.72
2018-12-01T18:14:19.245Z,19.71
2018-12-01T18:16:47.791Z,19.71
2018-12-01T18:19:16.565Z,19.72
2018-12-01T18:21:45.202Z,19.71
2018-12-01T18:24:15.053Z,19.70
2018-12-01T18:26:42.987Z,19.70
2018-12-01T18:29:16.577Z,19.68
2018-12-01T18:31:45.567Z,19.66
2018-12-01T18:34:19.212Z,19.68
2018-12-01T18:37:07.329Z,19.67
2018-12-01T18:39:35.691Z,19.65
2018-12-01T18:42:26.623Z,19.65
2018-12-01T18:44:55.304Z,19.64
2018-12-01T18:47:23.967Z,19.63
2018-12-01T18:49:52.206Z,19.62
2018-12-01T18:52:20.797Z,19.63
2018-12-01T18:54:49.603Z,19.64
2018-12-01T18:57:21.088Z,19.66
2018-12-01T18:59:49.525Z,19.65
2018-12-01T19:02:18.096Z,19.65
2018-12-01T19:04:51.358Z,19.65
2018-12-01T19:07:19.614Z,19.65
2018-12-01T19:09:48.395Z,19.66
2018-12-01T19:12:17.177Z,19.66
2018-12-01T19:14:45.380Z,19.66
2018-12-01T19:17:13.779Z,19.66
2018-12-01T19:19:41.981Z,19.68
2018-12-01T19:22:10.486Z,19.68
2018-12-01T19:24:39.628Z,19.65
2018-12-01T19:27:07.849Z,19.67
2018-12-01T19:29:37.776Z,19.68
2018-12-01T19:32:06.063Z,19.68
2018-12-01T19:34:34.882Z,19.70
2018-12-01T19:37:03.111Z,19.69
2018-12-01T19:39:33.668Z,19.69
2018-12-01T19:42:01.973Z,19.68
2018-12-01T19:44:30.539Z,19.68
2018-12-01T19:47:00.450Z,19.69
2018-12-01T19:49:29.775Z,19.68
2018-12-01T19:51:58.169Z,19.71
2018-12-01T19:54:26.732Z,19.61
2018-12-01T19:56:55.133Z,19.61
2018-12-01T19:59:23.588Z,19.63
2018-12-01T20:01:55.766Z,19.64
2018-12-01T20:04:24.104Z,19.64
2018-12-01T20:06:55.266Z,19.64
2018-12-01T20:09:24.854Z,19.63
2018-12-01T20:12:20.544Z,19.63
2018-12-01T20:14:52.963Z,19.62
2018-12-01T20:20:32.091Z,19.63
2018-12-01T20:23:15.016Z,19.62
2018-12-01T20:28:00.875Z,19.64
2018-12-01T20:50:01.578Z,19.71
2018-12-01T20:53:03.129Z,19.70
2018-12-01T20:55:31.823Z,19.69
2018-12-01T20:58:00.903Z,19.67
2018-12-01T21:00:29.166Z,19.68
2018-12-01T21:02:57.484Z,19.66
2018-12-01T21:05:25.921Z,19.70
2018-12-01T21:08:02.022Z,19.70
2018-12-01T21:10:48.842Z,19.72
2018-12-01T21:13:17.335Z,19.87
2018-12-01T21:15:45.524Z,19.81
2018-12-01T21:18:13.813Z,19.78
2018-12-01T21:20:42.036Z,19.79
2018-12-01T21:23:10.273Z,19.78
2018-12-01T21:25:38.588Z,19.79
2018-12-01T21:28:06.999Z,19.76
2018-12-01T21:30:35.283Z,19.76
2018-12-01T21:33:08.787Z,19.75
2018-12-01T21:35:36.992Z,19.74
2018-12-01T21:38:05.300Z,19.73
2018-12-01T21:40:33.546Z,19.71
2018-12-01T21:43:01.925Z,19.68
2018-12-01T21:45:30.345Z,19.66
2018-12-01T21:47:58.749Z,19.65
2018-12-01T21:50:27.283Z,19.64
2018-12-01T21:52:56.120Z,19.63
2018-12-01T21:55:24.807Z,19.64
2018-12-01T21:57:53.517Z,19.65
2018-12-01T22:00:28.215Z,19.66
2018-12-01T22:02:59.736Z,19.67
2018-12-01T22:05:32.103Z,19.67
2018-12-01T22:08:00.308Z,19.70
2018-12-01T22:10:29.638Z,19.69
2018-12-01T22:12:57.858Z,19.66
2018-12-01T22:15:26.112Z,19.67
2018-12-01T22:17:54.327Z,19.68
2018-12-01T22:20:23.028Z,19.69
2018-12-01T22:22:51.705Z,19.70
2018-12-01T22:25:19.914Z,19.71
2018-12-01T22:27:48.371Z,19.69
2018-12-01T22:30:17.152Z,19.71
2018-12-01T22:32:46.051Z,19.70
2018-12-01T22:35:17.851Z,19.67
2018-12-01T22:37:46.148Z,19.75
2018-12-01T22:40:15.302Z,19.76
2018-12-01T22:42:43.556Z,19.77
2018-12-01T22:45:11.758Z,19.76
2018-12-01T22:47:39.972Z,19.75
2018-12-01T22:50:15.042Z,19.77
2018-12-01T22:52:43.312Z,19.74
2018-12-01T22:55:12.472Z,19.74
2018-12-01T22:57:41.106Z,19.73
2018-12-01T23:00:19.071Z,19.79
2018-12-01T23:02:47.284Z,19.78
2018-12-01T23:05:15.556Z,19.81
2018-12-01T23:07:44.671Z,19.80
2018-12-01T23:10:13.386Z,19.74
2018-12-01T23:12:41.655Z,19.69
2018-12-01T23:15:13.466Z,19.67
2018-12-01T23:17:42.369Z,19.66
2018-12-01T23:20:14.392Z,19.66
2018-12-01T23:22:42.627Z,19.66
2018-12-01T23:25:11.076Z,19.63
2018-12-01T23:27:39.576Z,19.63
2018-12-01T23:30:12.175Z,19.62
2018-12-01T23:32:40.640Z,19.61
2018-12-01T23:35:08.947Z,19.61
2018-12-01T23:37:37.172Z,19.60
2018-12-01T23:40:07.537Z,19.60
2018-12-01T23:42:35.602Z,19.61
2018-12-01T23:45:03.903Z,19.61
2018-12-01T23:47:32.132Z,19.62
2018-12-01T23:50:00.395Z,19.61
2018-12-01T23:52:28.600Z,19.61
2018-12-01T23:54:56.823Z,19.61
2018-12-01T23:57:25.112Z,19.62
2018-12-01T23:59:53.472Z,19.63
